Latest Weather Observations for Ceduna

IDS60801

Issued at 5:35 pm CST Saturday 19 April 2014 (issued every 30 minutes, with the page automatically refreshed every 10 minutes)

About weather observations | Map of weather stations | Latest weather observations for SA | Other Formats
Station Details ID: 018012 Name: CEDUNA AMO Lat: -32.13 Lon: 133.70 Height: 15.3 m
Data from the previous 72 hours. | See also: Recent months at Ceduna
Date/Time
CST
Temp
°C
App
Temp
°C
Dew
Point
Rel
Hum
%
Delta-T
°C
Wind Press
QNH
hPa
Press
MSL
hPa
Rain
since 9 am
mm
Dir
 
Spd
km/h
Gust
km/h
Spd
kts
Gust
kts
19/05:30pm 19.9 18.2 11.3 57 4.7 S 11 15 6 8 1017.8 1017.8 0.0
19/05:00pm 20.3 18.0 11.6 57 4.8 SSW 15 19 8 10 1017.8 - 0.0
19/04:30pm 20.8 18.5 11.8 56 5.0 SSW 15 19 8 10 1017.8 1017.8 0.0
19/04:00pm 21.3 18.6 11.6 54 5.4 SSW 17 20 9 11 1017.8 - 0.0
19/03:30pm 22.2 19.5 11.6 51 5.9 SSW 17 20 9 11 1017.6 1017.6 0.0
19/03:00pm 21.7 19.3 11.4 52 5.7 SSW 15 19 8 10 1017.7 1017.7 0.0
19/02:30pm 21.7 19.3 11.4 52 5.7 SSW 15 20 8 11 1017.7 1017.7 0.0
19/02:00pm 21.8 19.0 11.3 51 5.8 SSW 17 22 9 12 1017.9 - 0.0
19/01:30pm 21.5 18.7 12.5 56 5.1 SSW 19 26 10 14 1018.4 1018.4 0.0
19/01:00pm 21.3 17.9 12.6 57 4.9 SW 22 26 12 14 1019.0 - 0.0
19/12:30pm 21.6 18.5 12.2 55 5.3 SSW 20 24 11 13 1019.5 1019.5 0.0
19/12:00pm 21.4 19.0 11.3 52 5.6 S 15 20 8 11 1020.0 1020.0 0.0
19/11:30am 22.0 21.1 10.7 48 6.2 E 6 13 3 7 1020.5 1020.5 0.0
19/11:00am 20.5 19.0 10.5 52 5.4 ESE 9 13 5 7 1021.0 - 0.0
19/10:30am 20.3 19.0 11.2 56 5.0 E 9 15 5 8 1021.1 1021.1 0.0
19/10:00am 18.9 16.6 10.5 58 4.5 E 13 20 7 11 1021.3 - 0.0
19/09:30am 17.5 15.3 10.8 65 3.6 SE 13 17 7 9 1021.6 1021.6 0.0
19/09:00am 15.9 13.6 10.6 71 2.8 SE 13 17 7 9 1021.8 1021.8 0.0
19/08:30am 15.1 13.3 10.9 76 2.2 SE 11 13 6 7 1021.6 1021.6 0.0
19/08:00am 14.2 13.6 11.8 85 1.3 SE 6 9 3 5 1021.4 - 0.0
19/07:30am 11.8 10.2 10.2 90 0.8 E 9 13 5 7 1021.2 1021.2 0.0
19/07:00am 11.0 8.9 9.6 91 0.7 E 11 15 6 8 1021.2 - 0.0
19/06:30am 11.0 8.5 9.8 92 0.6 E 13 17 7 9 1021.1 1021.1 0.0
19/06:00am 11.0 8.6 10.0 93 0.5 E 13 15 7 8 1021.0 1021.0 0.0
19/05:30am 9.7 7.4 8.9 95 0.4 ENE 11 13 6 7 1020.9 1020.9 0.0
19/05:00am 9.7 8.0 8.5 92 0.6 ENE 7 13 4 7 1020.9 - 0.0
19/04:30am 10.0 7.6 8.8 92 0.6 ESE 11 11 6 6 1021.0 1021.0 0.0
19/04:00am 10.3 8.4 9.1 92 0.6 ESE 9 11 5 6 1020.9 - 0.0
19/03:30am 11.0 9.2 9.4 90 0.8 ESE 9 11 5 6 1020.7 1020.7 0.0
19/03:00am 11.3 9.2 9.7 90 0.8 ESE 11 15 6 8 1020.8 1020.8 0.0
19/02:30am 12.5 10.1 10.0 85 1.3 ESE 13 17 7 9 1021.1 1021.1 0.0
19/02:00am 13.2 10.5 10.3 82 1.5 SE 15 19 8 10 1021.3 - 0.0
19/01:30am 13.4 10.7 10.5 82 1.5 SE 15 19 8 10 1021.5 1021.5 0.0
19/01:00am 13.6 11.4 10.9 84 1.4 SE 13 19 7 10 1021.6 - 0.0
19/12:30am 13.8 11.7 11.3 85 1.3 SE 13 17 7 9 1021.8 1021.8 0.0
19/12:00am 14.6 12.3 11.6 82 1.6 SE 15 19 8 10 1021.9 1021.9 0.0
 
Date/Time
CST
Temp
°C
App
Temp
°C
Dew
Point
Rel
Hum
%
Delta-T
°C
Wind Press
QNH
hPa
Press
MSL
hPa
Rain
since 9 am
mm
Dir
 
Spd
km/h
Gust
km/h
Spd
kts
Gust
kts
18/11:30pm 15.2 12.6 12.1 82 1.7 SE 17 22 9 12 1022.2 1022.2 0.0
18/11:00pm 15.5 13.5 12.6 83 1.6 SE 15 20 8 11 1022.4 - 0.0
18/10:30pm 15.6 14.1 13.1 85 1.4 SSE 13 17 7 9 1022.4 1022.4 0.0
18/10:00pm 16.3 14.0 13.1 81 1.8 SE 17 20 9 11 1022.4 - 0.0
18/09:30pm 16.7 14.4 12.9 78 2.1 SE 17 22 9 12 1022.2 1022.2 0.0
18/09:00pm 17.1 14.7 12.8 76 2.4 SSE 17 24 9 13 1022.0 1022.0 0.0
18/08:30pm 17.4 14.6 12.7 74 2.6 SE 19 24 10 13 1021.7 1021.7 0.0
18/08:00pm 17.6 15.0 13.1 75 2.5 SSE 19 26 10 14 1021.5 - 0.0
18/07:30pm 18.0 15.2 13.2 73 2.7 SSE 20 30 11 16 1021.4 1021.4 0.0
18/07:00pm 18.3 15.8 14.1 76 2.4 SSE 20 26 11 14 1021.4 - 0.0
18/06:30pm 18.5 15.4 14.5 77 2.3 SSE 24 32 13 17 1021.0 1021.0 0.0
18/06:00pm 19.0 16.1 15.1 78 2.3 S 24 32 13 17 1020.8 1020.8 0.0
18/05:30pm 19.8 15.9 14.5 71 3.1 S 28 33 15 18 1020.5 1020.5 0.0
18/05:00pm 20.2 15.4 14.1 68 3.5 S 32 39 17 21 1020.3 - 0.0
18/04:30pm 20.4 15.8 15.1 71 3.1 S 33 43 18 23 1020.3 1020.3 0.0
18/04:00pm 20.9 16.2 14.9 68 3.5 S 33 41 18 22 1020.3 - 0.0
18/03:30pm 21.7 17.1 14.5 63 4.2 S 32 41 17 22 1020.3 1020.3 0.0
18/03:00pm 21.8 16.9 14.3 62 4.4 S 33 41 18 22 1020.3 1020.3 0.0
18/02:30pm 22.9 17.9 13.4 55 5.5 S 32 41 17 22 1020.4 1020.4 0.0
18/02:00pm 23.1 17.8 12.4 51 6.1 S 32 37 17 20 1020.5 - 0.0
18/01:30pm 23.8 19.4 12.8 50 6.3 S 28 35 15 19 1020.8 1020.8 0.0
18/01:00pm 23.8 20.2 13.0 50 6.2 SSE 24 32 13 17 1021.2 - 0.0
18/12:30pm 25.3 23.1 10.8 40 8.1 ESE 13 19 7 10 1021.7 1021.7 0.0
18/12:00pm 24.3 21.3 10.8 42 7.5 SE 17 24 9 13 1022.3 1022.3 0.0
18/11:30am 24.1 20.9 11.2 44 7.2 E 19 26 10 14 1022.6 1022.6 0.0
18/11:00am 23.5 20.7 11.3 46 6.8 E 17 24 9 13 1022.9 - 0.0
18/10:30am 23.1 20.0 11.5 48 6.5 E 19 26 10 14 1023.2 1023.2 0.0
18/10:00am 22.4 19.5 11.0 48 6.3 E 17 24 9 13 1023.2 - 0.0
18/09:30am 21.4 18.4 10.8 50 5.8 E 17 22 9 12 1023.2 1023.2 0.0
18/09:00am 20.0 17.9 11.2 57 4.8 ENE 13 17 7 9 1023.2 1023.2 0.0
18/08:30am 17.8 17.2 12.2 70 3.1 NE 7 13 4 7 1023.4 1023.4 0.0
18/08:00am 14.7 14.2 11.9 83 1.5 NE 6 9 3 5 1023.0 - 0.0
18/07:30am 11.1 9.8 9.9 92 0.6 NE 7 9 4 5 1022.6 1022.6 0.0
18/07:00am 10.1 8.8 9.1 93 0.5 NE 6 7 3 4 1022.4 - 0.0
18/06:30am 10.4 9.1 9.2 92 0.6 NNE 6 7 3 4 1022.1 1022.1 0.0
18/06:00am 10.7 9.3 9.7 93 0.5 ENE 7 11 4 6 1022.0 1022.0 0.0
18/05:30am 11.7 9.8 10.5 92 0.6 E 11 13 6 7 1021.8 1021.8 0.0
18/05:00am 11.4 9.4 10.0 91 0.7 E 11 13 6 7 1021.4 - 0.0
18/04:30am 12.3 10.0 10.6 89 0.9 SE 13 15 7 8 1021.3 1021.3 0.0
18/04:00am 12.1 9.8 10.5 90 0.8 ESE 13 15 7 8 1020.8 - 0.0
18/03:30am 12.0 10.5 10.6 91 0.7 ESE 9 13 5 7 1020.6 1020.6 0.0
18/03:00am 12.6 10.9 11.3 92 0.7 SE 11 17 6 9 1020.6 1020.6 0.0
18/02:30am 12.6 10.8 10.7 88 1.0 SE 11 15 6 8 1020.7 1020.7 0.0
18/02:00am 13.3 9.7 10.0 80 1.7 S 19 24 10 13 1020.6 - 0.0
18/01:30am 13.9 11.8 9.8 76 2.1 NE 11 15 6 8 1020.1 1020.1 0.0
18/01:00am 14.7 12.4 10.5 76 2.2 NE 13 17 7 9 1020.3 - 0.0
18/12:30am 14.9 11.8 10.3 74 2.4 NE 17 20 9 11 1020.2 1020.2 0.0
18/12:00am 13.6 11.3 10.5 81 1.6 ENE 13 15 7 8 1020.4 1020.4 0.0
 
Date/Time
CST
Temp
°C
App
Temp
°C
Dew
Point
Rel
Hum
%
Delta-T
°C
Wind Press
QNH
hPa
Press
MSL
hPa
Rain
since 9 am
mm
Dir
 
Spd
km/h
Gust
km/h
Spd
kts
Gust
kts
17/11:30pm 13.2 10.9 10.3 82 1.5 NE 13 15 7 8 1020.6 1020.6 0.0
17/11:00pm 13.1 10.0 10.4 84 1.4 ENE 17 17 9 9 1021.0 - 0.0
17/10:30pm 12.9 10.5 10.2 84 1.4 NE 13 15 7 8 1021.4 1021.4 0.0
17/10:00pm 13.0 11.0 10.1 82 1.5 NE 11 15 6 8 1021.6 - 0.0
17/09:30pm 12.4 12.3 9.4 82 1.5 CALM 0 0 0 0 1021.7 1021.7 0.0
17/09:00pm 13.9 12.8 10.8 81 1.6 NNE 7 9 4 5 1021.6 1021.6 0.0
17/08:30pm 14.4 13.5 10.6 78 2.0 NNE 6 7 3 4 1021.5 1021.5 0.0
17/08:00pm 15.1 14.8 11.4 78 2.0 ENE 4 7 2 4 1021.1 - 0.0
17/07:30pm 16.8 16.4 12.4 75 2.4 SE 6 6 3 3 1020.7 1020.7 0.0
17/07:00pm 17.0 16.1 11.5 70 3.0 SSE 7 9 4 5 1020.5 - 0.0
17/06:30pm 18.2 16.7 11.8 66 3.5 S 11 13 6 7 1020.3 1020.3 0.0
17/06:00pm 20.0 18.4 11.7 59 4.6 S 11 13 6 7 1020.0 1020.0 0.0
17/05:30pm 20.9 18.1 11.3 54 5.3 S 17 20 9 11 1019.8 1019.8 0.0
17/05:00pm 21.6 18.4 11.3 52 5.7 S 19 26 10 14 1019.7 - 0.0
17/04:30pm 22.5 19.1 11.1 48 6.3 S 20 26 11 14 1019.7 1019.7 0.0
17/04:00pm 22.6 18.8 11.0 48 6.4 SSW 22 28 12 15 1019.8 - 0.0
17/03:30pm 22.6 19.1 12.1 51 5.9 SSW 22 28 12 15 1019.8 1019.8 0.0
17/03:00pm 23.0 20.1 12.9 53 5.8 SSW 20 26 11 14 1019.8 1019.8 0.0
17/02:30pm 23.0 19.5 12.2 50 6.1 SSW 22 28 12 15 1019.9 1019.9 0.0
17/02:00pm 23.8 19.6 9.9 41 7.6 SSW 22 30 12 16 1020.0 - 0.0
17/01:30pm 23.2 20.3 14.1 56 5.3 SSW 22 26 12 14 1020.0 1020.0 0.0
17/01:00pm 24.5 21.1 10.4 41 7.8 SSW 19 22 10 12 1020.3 - 0.0
17/12:30pm 24.9 22.8 11.2 42 7.7 SW 13 17 7 9 1020.7 1020.7 0.0
17/12:00pm 24.3 22.2 9.6 39 8.0 WSW 11 15 6 8 1021.1 1021.1 0.0
17/11:30am 24.2 22.4 10.7 42 7.5 WSW 11 15 6 8 1021.3 1021.3 0.0
17/11:00am 24.4 22.7 9.7 39 8.0 WNW 9 17 5 9 1021.4 - 0.0
17/10:30am 22.3 21.1 10.4 47 6.5 NW 7 9 4 5 1021.5 1021.5 0.0
17/10:00am 20.4 18.8 10.2 52 5.5 NW 9 11 5 6 1021.9 - 0.0
17/09:30am 18.1 17.4 11.3 64 3.7 NW 6 7 3 4 1021.8 1021.8 0.0
17/09:00am 16.9 15.9 11.1 68 3.1 N 7 9 4 5 1021.8 1021.8 0.0
17/08:30am 15.1 15.7 12.0 82 1.7 CALM 0 6 0 3 1021.6 1021.6 0.0
17/08:00am 13.0 13.7 12.3 95 0.4 CALM 0 0 0 0 1021.4 - 0.0
17/07:30am 9.1 8.0 8.3 95 0.4 SSE 4 6 2 3 1021.1 1021.1 0.0
17/07:00am 7.7 5.7 7.3 97 0.2 SSE 7 7 4 4 1020.7 - 0.0
17/06:58am 7.8 6.1 7.4 97 0.2 SSE 6 7 3 4 1020.6 - 0.0
17/06:30am 7.7 5.9 7.1 96 0.3 SW 6 7 3 4 1020.6 1020.6 0.0
17/06:00am 8.1 6.4 7.5 96 0.3 SSW 6 7 3 4 1020.4 1020.4 0.0
17/05:30am 8.4 7.9 7.8 96 0.3 CALM 0 0 0 0 1020.1 1020.1 0.0
17/05:00am 8.5 6.8 7.4 93 0.5 E 6 7 3 4 1019.8 - 0.0
17/04:30am 9.7 8.4 9.1 96 0.3 NNE 6 9 3 5 1019.6 1019.6 0.0
17/04:00am 9.9 7.7 9.3 96 0.3 NNE 11 13 6 7 1019.6 - 0.0
17/03:30am 10.1 8.3 9.3 95 0.4 NE 9 9 5 5 1019.7 1019.7 0.0
17/03:00am 9.5 9.3 8.9 96 0.3 CALM 0 0 0 0 1020.1 1020.1 0.0
17/02:30am 9.0 8.6 8.2 95 0.4 CALM 0 0 0 0 1020.3 1020.3 0.0
17/02:00am 9.9 8.5 8.9 93 0.5 NNE 6 7 3 4 1020.3 - 0.0
17/01:30am 9.9 8.5 8.9 93 0.5 NE 6 6 3 3 1020.5 1020.5 0.0
17/01:00am 10.7 9.0 9.7 93 0.5 NE 9 9 5 5 1020.5 - 0.0
17/12:30am 11.1 9.7 9.7 91 0.7 NNE 7 9 4 5 1020.6 1020.6 0.0
17/12:00am 11.4 10.1 9.8 90 0.8 NE 7 9 4 5 1020.8 1020.8 0.0
 
Date/Time
CST
Temp
°C
App
Temp
°C
Dew
Point
Rel
Hum
%
Delta-T
°C
Wind Press
QNH
hPa
Press
MSL
hPa
Rain
since 9 am
mm
Dir
 
Spd
km/h
Gust
km/h
Spd
kts
Gust
kts
16/11:30pm 11.5 9.8 9.9 90 0.8 ENE 9 11 5 6 1020.9 1020.9 0.0
16/11:00pm 11.7 10.1 10.1 90 0.8 ENE 9 13 5 7 1021.1 - 0.0
16/10:30pm 12.2 10.3 10.5 89 0.9 NE 11 13 6 7 1021.3 1021.3 0.0
16/10:00pm 12.9 11.9 11.0 88 1.0 E 7 9 4 5 1021.2 - 0.0
16/09:30pm 13.0 11.7 11.1 88 1.0 ESE 9 9 5 5 1021.2 1021.2 0.0
16/09:00pm 13.2 12.0 11.5 89 0.9 SE 9 9 5 5 1021.0 1021.0 0.0
16/08:30pm 13.9 12.4 12.0 88 1.0 SE 11 13 6 7 1020.9 1020.9 0.0
16/08:00pm 14.2 12.7 11.8 85 1.3 SE 11 11 6 6 1020.7 - 0.0
16/07:30pm 15.8 14.6 12.9 83 1.6 SSE 11 13 6 7 1020.6 1020.6 0.0
16/07:00pm 16.6 15.3 13.6 82 1.7 SSE 13 13 7 7 1020.4 - 0.0
16/06:30pm 17.9 17.2 13.3 74 2.6 SSE 9 13 5 7 1020.3 1020.3 0.0
16/06:00pm 19.0 16.8 13.2 69 3.3 S 17 20 9 11 1020.1 1020.1 0.0

Other Formats:

Comma delimited format used in spreadsheet applications
http://www.bom.gov.au/fwo/IDS60801/IDS60801.94653.axf

JavaScript Object Notation format (JSON) in row-major order
http://www.bom.gov.au/fwo/IDS60801/IDS60801.94653.json